Aviation Digital Data Service (ADDS)

Output produced by TAFs form (1131 UTC 19 January 2018)
found at http://www.aviationweather.gov/adds/tafs/
 
RJSF 191100Z 03009KT 9999 FEW030 BKN/// 00/M07 Q1018
TAF RJSF 191105Z 1912/2018 34008KT 9999 FEW030 
     BECMG 1922/2000 20004KT 
     BECMG 2012/2015 36005KT